Time;durP1;ratioP1;P1;durP2;ratioP2;P2;SDS_P1;SDS_P2;PMS_P1;PMS_P2;Temp;Humidity;BMP_temperature;BMP_pressure;BME280_temperature;BME280_humidity;BME280_pressure;Samples;Min_cycle;Max_cycle;Signal;HPM_P1;HPM_P2
2023/08/16 00:01:47;;;;;;;4.30;3.90;;;;;;;;;;5007915;28;20042;-78
2023/08/16 00:04:15;;;;;;;4.35;3.55;;;;;;;;;;5001557;28;20057;-77
2023/08/16 00:06:42;;;;;;;4.78;4.00;;;;;;;;;;4996617;28;20558;-78
2023/08/16 00:09:10;;;;;;;7.43;3.90;;;;;;;;;;4994908;28;20042;-77
2023/08/16 00:11:37;;;;;;;5.95;4.15;;;;;;;;;;4998873;28;20037;-78
2023/08/16 00:14:05;;;;;;;4.30;3.90;;;;;;;;;;5000213;28;20050;-77
2023/08/16 00:16:33;;;;;;;4.13;3.83;;;;;;;;;;5000369;28;20049;-78
2023/08/16 00:19:00;;;;;;;4.95;3.60;;;;;;;;;;5008250;28;20590;-78
2023/08/16 00:21:28;;;;;;;5.93;4.18;;;;;;;;;;4999848;28;20053;-78
2023/08/16 00:23:55;;;;;;;4.03;3.78;;;;;;;;;;5008022;28;20108;-77
2023/08/16 00:26:23;;;;;;;4.15;3.58;;;;;;;;;;5008174;28;20058;-77
2023/08/16 00:28:51;;;;;;;4.57;3.67;;;;;;;;;;4998172;28;20162;-78
2023/08/16 00:31:19;;;;;;;3.90;3.60;;;;;;;;;;5006424;28;20077;-78
2023/08/16 00:33:47;;;;;;;5.50;3.72;;;;;;;;;;5007389;28;20046;-78
2023/08/16 00:36:14;;;;;;;3.83;3.53;;;;;;;;;;5001238;28;20100;-77
2023/08/16 00:38:44;;;;;;;4.10;3.80;;;;;;;;;;4996424;28;20061;-77
2023/08/16 00:41:12;;;;;;;4.00;3.70;;;;;;;;;;4995884;28;20046;-77
2023/08/16 00:43:40;;;;;;;4.15;3.75;;;;;;;;;;4988977;28;20050;-77
2023/08/16 00:46:13;;;;;;;4.38;3.92;;;;;;;;;;4998176;28;20061;-78
2023/08/16 00:48:42;;;;;;;4.75;3.72;;;;;;;;;;4998134;28;20499;-77
2023/08/16 00:51:09;;;;;;;4.55;4.10;;;;;;;;;;5006540;28;20050;-77
2023/08/16 00:53:39;;;;;;;3.83;3.53;;;;;;;;;;5007561;28;20516;-77
2023/08/16 00:56:12;;;;;;;4.28;3.83;;;;;;;;;;4992284;28;20058;-77
2023/08/16 00:58:39;;;;;;;5.68;4.28;;;;;;;;;;5003904;28;20409;-77
2023/08/16 01:01:07;;;;;;;4.13;3.78;;;;;;;;;;4992967;28;20073;-78
2023/08/16 01:03:34;;;;;;;5.38;4.25;;;;;;;;;;5006361;28;20434;-78
2023/08/16 01:06:02;;;;;;;6.15;4.80;;;;;;;;;;4990573;28;20049;-77
2023/08/16 01:08:30;;;;;;;4.55;4.15;;;;;;;;;;5006809;28;20056;-77
2023/08/16 01:11:07;;;;;;;5.13;3.90;;;;;;;;;;4987463;28;20074;-77
2023/08/16 01:13:41;;;;;;;6.93;4.22;;;;;;;;;;4995355;28;20111;-77
2023/08/16 01:16:09;;;;;;;8.48;4.47;;;;;;;;;;4998931;28;20104;-78
2023/08/16 01:18:37;;;;;;;4.70;4.30;;;;;;;;;;4997207;28;20061;-77
2023/08/16 01:21:07;;;;;;;6.60;4.40;;;;;;;;;;5006997;28;20472;-78
2023/08/16 01:23:43;;;;;;;7.70;4.72;;;;;;;;;;4999145;28;20590;-77
2023/08/16 01:26:17;;;;;;;5.40;4.90;;;;;;;;;;4999160;28;20054;-77
2023/08/16 01:28:45;;;;;;;11.15;5.03;;;;;;;;;;5006831;28;20049;-77
2023/08/16 01:31:12;;;;;;;5.07;4.45;;;;;;;;;;4997165;28;20519;-77
2023/08/16 01:33:40;;;;;;;5.28;4.72;;;;;;;;;;4997889;28;20294;-77
2023/08/16 01:36:08;;;;;;;4.82;4.43;;;;;;;;;;5002027;28;20066;-77
2023/08/16 01:38:35;;;;;;;4.93;4.43;;;;;;;;;;5003959;28;20053;-78
2023/08/16 01:41:08;;;;;;;7.18;5.07;;;;;;;;;;4998772;28;20045;-77
2023/08/16 01:43:36;;;;;;;7.45;5.05;;;;;;;;;;5006410;28;20427;-77
2023/08/16 01:46:04;;;;;;;5.63;4.80;;;;;;;;;;4993870;28;20096;-77
2023/08/16 01:48:33;;;;;;;9.93;4.95;;;;;;;;;;4993164;28;20058;-78
2023/08/16 01:51:00;;;;;;;7.20;5.10;;;;;;;;;;4996967;28;20061;-77
2023/08/16 01:53:28;;;;;;;5.72;4.80;;;;;;;;;;4991084;28;20501;-77
2023/08/16 01:55:55;;;;;;;6.05;5.53;;;;;;;;;;5007143;28;20077;-77
2023/08/16 01:58:22;;;;;;;5.60;5.10;;;;;;;;;;4997789;28;20305;-77
2023/08/16 02:00:50;;;;;;;7.20;4.20;;;;;;;;;;5007273;28;20567;-77
2023/08/16 02:03:18;;;;;;;6.75;4.85;;;;;;;;;;5010468;28;20058;-77
2023/08/16 02:05:45;;;;;;;5.30;4.80;;;;;;;;;;5010215;28;20466;-77
2023/08/16 02:08:13;;;;;;;7.47;5.20;;;;;;;;;;5001030;28;20056;-77
2023/08/16 02:10:40;;;;;;;4.90;4.50;;;;;;;;;;4994108;28;20053;-77
2023/08/16 02:13:07;;;;;;;5.07;4.68;;;;;;;;;;5004275;28;20489;-77
2023/08/16 02:15:35;;;;;;;7.22;4.47;;;;;;;;;;4988929;28;20057;-77
2023/08/16 02:18:02;;;;;;;6.05;4.78;;;;;;;;;;5001244;28;20049;-77
2023/08/16 02:20:30;;;;;;;6.75;4.97;;;;;;;;;;4993428;28;20058;-78
2023/08/16 02:22:57;;;;;;;7.65;5.07;;;;;;;;;;4998890;28;20065;-77
2023/08/16 02:25:25;;;;;;;4.90;4.43;;;;;;;;;;5005751;28;20468;-77
2023/08/16 02:27:52;;;;;;;5.75;5.20;;;;;;;;;;5008753;28;20500;-78
2023/08/16 02:30:20;;;;;;;9.70;5.93;;;;;;;;;;5009961;28;20450;-78
2023/08/16 02:32:48;;;;;;;5.43;4.93;;;;;;;;;;4990551;28;20049;-77
2023/08/16 02:35:15;;;;;;;5.30;4.20;;;;;;;;;;4989242;28;20042;-77
2023/08/16 02:37:43;;;;;;;6.82;4.55;;;;;;;;;;5007342;28;20045;-77
2023/08/16 02:40:11;;;;;;;5.45;4.95;;;;;;;;;;5005393;28;20054;-77
2023/08/16 02:42:39;;;;;;;6.93;4.72;;;;;;;;;;4998826;28;20078;-77
2023/08/16 02:45:07;;;;;;;5.93;4.68;;;;;;;;;;5009625;28;20042;-77
2023/08/16 02:47:34;;;;;;;6.95;5.82;;;;;;;;;;4998805;28;20456;-77
2023/08/16 02:50:08;;;;;;;10.50;4.97;;;;;;;;;;4986013;28;20042;-77
2023/08/16 02:52:36;;;;;;;5.72;5.15;;;;;;;;;;4990765;28;20050;-77
2023/08/16 02:55:04;;;;;;;5.78;5.38;;;;;;;;;;5043089;22;20494;-77
2023/08/16 02:57:31;;;;;;;6.55;5.78;;;;;;;;;;5010952;28;20049;-77
2023/08/16 02:59:59;;;;;;;6.30;5.72;;;;;;;;;;5029054;28;20037;-78
2023/08/16 03:02:27;;;;;;;10.35;4.88;;;;;;;;;;5017509;28;20058;-77
2023/08/16 03:04:55;;;;;;;7.47;5.43;;;;;;;;;;5007504;28;20455;-77
2023/08/16 03:07:23;;;;;;;9.52;5.20;;;;;;;;;;5009579;28;20451;-77
2023/08/16 03:09:50;;;;;;;10.88;5.53;;;;;;;;;;4998330;28;20521;-77
2023/08/16 03:12:18;;;;;;;5.95;5.20;;;;;;;;;;5009374;28;20554;-77
2023/08/16 03:14:45;;;;;;;6.00;5.47;;;;;;;;;;5009163;28;20507;-77
2023/08/16 03:17:13;;;;;;;14.63;6.20;;;;;;;;;;4999831;28;20104;-78
2023/08/16 03:19:40;;;;;;;7.07;6.35;;;;;;;;;;5002813;28;20068;-77
2023/08/16 03:22:08;;;;;;;6.95;6.20;;;;;;;;;;4991809;28;20124;-78
2023/08/16 03:24:35;;;;;;;6.53;5.75;;;;;;;;;;5009005;28;20474;-77
2023/08/16 03:27:03;;;;;;;6.72;5.85;;;;;;;;;;4991122;28;20048;-78
2023/08/16 03:29:31;;;;;;;5.95;5.40;;;;;;;;;;4995058;28;20046;-78
2023/08/16 03:31:59;;;;;;;5.28;4.78;;;;;;;;;;4999840;28;20160;-77
2023/08/16 03:34:26;;;;;;;5.35;5.05;;;;;;;;;;5009374;28;20054;-77
2023/08/16 03:36:54;;;;;;;6.97;5.47;;;;;;;;;;5005840;28;20092;-78
2023/08/16 03:39:21;;;;;;;5.50;5.00;;;;;;;;;;5001398;28;20133;-78
2023/08/16 03:41:49;;;;;;;8.70;5.18;;;;;;;;;;5001263;28;20045;-78
2023/08/16 03:44:16;;;;;;;5.88;5.28;;;;;;;;;;5008482;28;20057;-78
2023/08/16 03:46:44;;;;;;;5.47;5.00;;;;;;;;;;5008414;28;20550;-78
2023/08/16 03:49:11;;;;;;;7.13;4.80;;;;;;;;;;5007870;28;20526;-77
2023/08/16 03:51:40;;;;;;;9.48;4.82;;;;;;;;;;4998957;28;20049;-77
2023/08/16 03:54:08;;;;;;;5.35;4.82;;;;;;;;;;4983959;28;20181;-77
2023/08/16 03:56:36;;;;;;;7.85;4.88;;;;;;;;;;5008620;28;20104;-77
2023/08/16 03:59:03;;;;;;;8.13;5.30;;;;;;;;;;4982776;28;20427;-77
2023/08/16 04:01:31;;;;;;;5.57;5.07;;;;;;;;;;4995407;28;20050;-78
2023/08/16 04:03:59;;;;;;;6.07;5.47;;;;;;;;;;5008466;28;20057;-77
2023/08/16 04:06:26;;;;;;;8.32;5.47;;;;;;;;;;5006839;28;20046;-77
2023/08/16 04:08:54;;;;;;;5.90;5.45;;;;;;;;;;5006539;28;20073;-77
2023/08/16 04:11:21;;;;;;;9.20;5.95;;;;;;;;;;4992404;28;20863;-78
2023/08/16 04:13:48;;;;;;;6.28;5.68;;;;;;;;;;4992993;28;20397;-78
2023/08/16 04:16:16;;;;;;;6.97;6.25;;;;;;;;;;5008073;28;20467;-78
2023/08/16 04:18:43;;;;;;;5.85;5.35;;;;;;;;;;5003519;28;20050;-78
2023/08/16 04:21:11;;;;;;;6.45;5.82;;;;;;;;;;5007921;28;20117;-78
2023/08/16 04:23:38;;;;;;;8.75;5.90;;;;;;;;;;4998896;28;20085;-78
2023/08/16 04:26:05;;;;;;;7.05;6.45;;;;;;;;;;4998338;28;20045;-78
2023/08/16 04:28:33;;;;;;;7.57;6.20;;;;;;;;;;4995123;28;20132;-78
2023/08/16 04:31:01;;;;;;;6.63;5.95;;;;;;;;;;5005486;28;20515;-78
2023/08/16 04:33:28;;;;;;;6.03;5.53;;;;;;;;;;4998604;28;20045;-78
2023/08/16 04:35:56;;;;;;;5.75;5.15;;;;;;;;;;5006552;28;20080;-78
2023/08/16 04:38:24;;;;;;;5.70;5.20;;;;;;;;;;4992783;28;20143;-78
2023/08/16 04:40:53;;;;;;;7.55;5.20;;;;;;;;;;5000673;28;20400;-78
2023/08/16 04:43:20;;;;;;;5.35;4.88;;;;;;;;;;5004089;28;20045;-78
2023/08/16 04:45:48;;;;;;;5.88;5.20;;;;;;;;;;4998152;28;20049;-78
2023/08/16 04:48:16;;;;;;;6.30;5.80;;;;;;;;;;4998206;28;20046;-78
2023/08/16 04:50:45;;;;;;;6.40;5.80;;;;;;;;;;5003960;28;20046;-78
2023/08/16 04:53:13;;;;;;;6.03;5.53;;;;;;;;;;5004448;28;20357;-78
2023/08/16 04:55:42;;;;;;;7.78;7.05;;;;;;;;;;4995951;28;20492;-78
2023/08/16 04:58:11;;;;;;;7.68;7.05;;;;;;;;;;4997026;28;20169;-78
2023/08/16 05:00:44;;;;;;;8.10;7.10;;;;;;;;;;5006421;28;20065;-78
2023/08/16 05:03:12;;;;;;;7.25;6.65;;;;;;;;;;5005927;28;20161;-78
2023/08/16 05:05:39;;;;;;;8.25;7.07;;;;;;;;;;4997745;28;20049;-78
2023/08/16 05:08:08;;;;;;;7.50;6.47;;;;;;;;;;4990262;28;20407;-78
2023/08/16 05:10:37;;;;;;;8.77;6.75;;;;;;;;;;5001964;28;20058;-78
2023/08/16 05:13:04;;;;;;;10.27;7.53;;;;;;;;;;4990735;28;20053;-78
2023/08/16 05:15:31;;;;;;;15.45;7.82;;;;;;;;;;4989794;28;20068;-78
2023/08/16 05:17:59;;;;;;;7.00;6.50;;;;;;;;;;4973335;28;20049;-78
2023/08/16 05:20:27;;;;;;;8.25;7.57;;;;;;;;;;5006017;28;20050;-78
2023/08/16 05:22:55;;;;;;;7.78;6.70;;;;;;;;;;5007339;28;20500;-78
2023/08/16 05:25:22;;;;;;;7.45;6.63;;;;;;;;;;5007245;28;20049;-78
2023/08/16 05:27:50;;;;;;;7.90;6.38;;;;;;;;;;5007090;28;20077;-78
2023/08/16 05:30:17;;;;;;;7.22;6.45;;;;;;;;;;5007702;28;20050;-78
2023/08/16 05:32:44;;;;;;;7.03;6.50;;;;;;;;;;5007213;28;20455;-78
2023/08/16 05:35:12;;;;;;;6.22;5.72;;;;;;;;;;5007072;28;20050;-78
2023/08/16 05:37:40;;;;;;;7.03;6.10;;;;;;;;;;5007423;28;20050;-78
2023/08/16 05:40:09;;;;;;;6.03;5.43;;;;;;;;;;5007083;28;20135;-78
2023/08/16 05:42:36;;;;;;;6.35;5.72;;;;;;;;;;5007311;28;20056;-79
2023/08/16 05:45:04;;;;;;;6.15;5.55;;;;;;;;;;5007058;28;20069;-78
2023/08/16 05:47:31;;;;;;;5.53;5.10;;;;;;;;;;5006712;28;20523;-78
2023/08/16 05:50:00;;;;;;;5.60;5.10;;;;;;;;;;5006077;28;20102;-78
2023/08/16 05:52:27;;;;;;;4.63;4.32;;;;;;;;;;5007136;28;20062;-78
2023/08/16 05:54:54;;;;;;;5.75;4.43;;;;;;;;;;5006578;28;20134;-78
2023/08/16 05:57:22;;;;;;;5.45;4.93;;;;;;;;;;5006817;28;20062;-79
2023/08/16 05:59:49;;;;;;;5.43;5.03;;;;;;;;;;5006694;28;20062;-78
2023/08/16 06:02:17;;;;;;;5.72;4.90;;;;;;;;;;4999049;28;20065;-78
2023/08/16 06:04:44;;;;;;;5.85;5.35;;;;;;;;;;5006700;28;20096;-78
2023/08/16 06:07:12;;;;;;;6.40;5.60;;;;;;;;;;5006692;28;20058;-78
2023/08/16 06:09:39;;;;;;;5.35;4.85;;;;;;;;;;5006720;28;20125;-78
2023/08/16 06:12:07;;;;;;;5.43;5.03;;;;;;;;;;4999456;28;20155;-77
2023/08/16 06:14:34;;;;;;;5.53;5.10;;;;;;;;;;5004967;28;20049;-77
2023/08/16 06:17:05;;;;;;;5.72;5.22;;;;;;;;;;5005896;28;20046;-77
2023/08/16 06:19:32;;;;;;;5.60;5.15;;;;;;;;;;5005419;28;20100;-77
2023/08/16 06:22:00;;;;;;;6.60;5.40;;;;;;;;;;5003630;28;20050;-77
2023/08/16 06:24:30;;;;;;;5.55;5.05;;;;;;;;;;4991117;28;20057;-77
2023/08/16 06:26:57;;;;;;;6.45;5.78;;;;;;;;;;5003633;28;20141;-78
2023/08/16 06:29:25;;;;;;;5.63;5.00;;;;;;;;;;5004181;28;20129;-79
2023/08/16 06:31:54;;;;;;;5.22;4.82;;;;;;;;;;5008579;28;20117;-78
2023/08/16 06:34:22;;;;;;;6.10;5.60;;;;;;;;;;5002074;28;20042;-78
2023/08/16 06:36:49;;;;;;;5.93;5.43;;;;;;;;;;5008546;28;20519;-79
2023/08/16 06:39:17;;;;;;;6.65;6.15;;;;;;;;;;5008001;28;20713;-78
2023/08/16 06:41:44;;;;;;;6.10;5.60;;;;;;;;;;5008107;28;20050;-78
2023/08/16 06:44:13;;;;;;;5.50;4.90;;;;;;;;;;4995633;28;20050;-78
2023/08/16 06:46:40;;;;;;;6.00;5.18;;;;;;;;;;5001336;28;20062;-79
2023/08/16 06:49:07;;;;;;;6.10;5.65;;;;;;;;;;5007658;28;20153;-78
2023/08/16 06:51:35;;;;;;;7.47;5.65;;;;;;;;;;5001020;28;20050;-79
2023/08/16 06:54:02;;;;;;;5.82;5.35;;;;;;;;;;5008134;28;20734;-79
2023/08/16 06:56:30;;;;;;;6.53;5.95;;;;;;;;;;5007710;28;20049;-79
2023/08/16 06:58:57;;;;;;;9.18;6.40;;;;;;;;;;5006891;28;20630;-78
2023/08/16 07:01:25;;;;;;;6.55;5.93;;;;;;;;;;5006811;28;20565;-76
2023/08/16 07:03:52;;;;;;;6.85;6.30;;;;;;;;;;5007970;28;20064;-76
2023/08/16 07:06:20;;;;;;;5.85;5.45;;;;;;;;;;5006898;28;20500;-76
2023/08/16 07:08:47;;;;;;;6.30;5.65;;;;;;;;;;5007547;28;20125;-76
2023/08/16 07:11:15;;;;;;;5.85;5.35;;;;;;;;;;5007034;28;21264;-76
2023/08/16 07:13:43;;;;;;;5.95;5.45;;;;;;;;;;5007596;28;20076;-76
2023/08/16 07:16:12;;;;;;;6.00;5.50;;;;;;;;;;5006885;28;20046;-77
2023/08/16 07:18:39;;;;;;;5.88;5.38;;;;;;;;;;5007575;28;20053;-77
2023/08/16 07:21:07;;;;;;;6.20;5.68;;;;;;;;;;4992883;28;20050;-77
2023/08/16 07:23:35;;;;;;;6.10;5.60;;;;;;;;;;5000848;28;20104;-78
2023/08/16 07:26:03;;;;;;;6.18;5.57;;;;;;;;;;5008994;28;20046;-78
2023/08/16 07:28:30;;;;;;;6.10;5.15;;;;;;;;;;5009655;28;20201;-78
2023/08/16 07:30:58;;;;;;;6.80;5.28;;;;;;;;;;5008786;28;20908;-77
2023/08/16 07:33:25;;;;;;;5.78;5.28;;;;;;;;;;5009353;28;20042;-77
2023/08/16 07:35:53;;;;;;;6.18;5.57;;;;;;;;;;5008727;28;20045;-78
2023/08/16 07:38:20;;;;;;;5.15;4.72;;;;;;;;;;5008629;28;20054;-78
2023/08/16 07:40:48;;;;;;;5.70;4.93;;;;;;;;;;5015906;28;20099;-78
2023/08/16 07:43:15;;;;;;;5.43;4.97;;;;;;;;;;5009033;28;20049;-78
2023/08/16 07:45:43;;;;;;;5.00;4.00;;;;;;;;;;5008938;28;20097;-78
2023/08/16 07:48:10;;;;;;;4.15;3.85;;;;;;;;;;5008872;28;20077;-77
2023/08/16 07:50:38;;;;;;;3.97;3.67;;;;;;;;;;5007944;28;20471;-78
2023/08/16 07:53:05;;;;;;;4.57;4.18;;;;;;;;;;5008690;28;20455;-78
2023/08/16 07:55:33;;;;;;;3.97;3.75;;;;;;;;;;5008402;28;20053;-78
2023/08/16 07:58:01;;;;;;;4.13;3.83;;;;;;;;;;5008490;28;20065;-78
2023/08/16 08:00:29;;;;;;;3.75;3.30;;;;;;;;;;5008818;28;20061;-78
2023/08/16 08:02:56;;;;;;;5.90;3.20;;;;;;;;;;5008350;28;20058;-78
2023/08/16 08:05:28;;;;;;;3.63;2.92;;;;;;;;;;5000981;28;20077;-79
2023/08/16 08:07:56;;;;;;;3.30;3.00;;;;;;;;;;4998566;28;20041;-78
2023/08/16 08:10:24;;;;;;;3.10;2.88;;;;;;;;;;5007861;28;20038;-78
2023/08/16 08:12:51;;;;;;;3.10;2.80;;;;;;;;;;5008173;28;20053;-78
2023/08/16 08:15:19;;;;;;;4.75;3.15;;;;;;;;;;5008026;28;20679;-78
2023/08/16 08:17:47;;;;;;;3.20;2.83;;;;;;;;;;5008507;28;20485;-78
2023/08/16 08:20:15;;;;;;;3.17;2.90;;;;;;;;;;5008320;28;20065;-78
2023/08/16 08:22:42;;;;;;;3.30;2.80;;;;;;;;;;5008492;28;20057;-78
2023/08/16 08:25:10;;;;;;;3.15;2.90;;;;;;;;;;5006773;28;20077;-78
2023/08/16 08:27:37;;;;;;;2.65;2.40;;;;;;;;;;5007772;28;20077;-78
2023/08/16 08:30:07;;;;;;;3.38;3.13;;;;;;;;;;5008507;28;20069;-79
2023/08/16 08:32:34;;;;;;;3.22;2.92;;;;;;;;;;5009076;28;20088;-77
2023/08/16 08:35:04;;;;;;;3.65;3.13;;;;;;;;;;5007878;28;20129;-79
2023/08/16 08:37:32;;;;;;;2.80;2.60;;;;;;;;;;5007585;28;20045;-75
2023/08/16 08:39:59;;;;;;;2.70;2.50;;;;;;;;;;5007495;28;20385;-78
2023/08/16 08:42:28;;;;;;;2.83;2.45;;;;;;;;;;5007453;28;20050;-78
2023/08/16 08:44:57;;;;;;;2.70;2.50;;;;;;;;;;5007173;28;20057;-77
2023/08/16 08:47:25;;;;;;;2.92;2.60;;;;;;;;;;5006244;28;20129;-76
2023/08/16 08:49:52;;;;;;;2.80;2.60;;;;;;;;;;5006934;28;20048;-77
2023/08/16 08:52:21;;;;;;;2.80;2.60;;;;;;;;;;5007400;28;20061;-77
2023/08/16 08:54:49;;;;;;;2.75;2.53;;;;;;;;;;5058450;23;20057;-86
2023/08/16 08:57:17;;;;;;;2.60;2.35;;;;;;;;;;5013347;28;20156;-85
2023/08/16 08:59:49;;;;;;;2.70;2.50;;;;;;;;;;5013428;28;20037;-87
2023/08/16 09:02:20;;;;;;;3.15;2.30;;;;;;;;;;5013346;28;20060;-87
2023/08/16 09:04:50;;;;;;;3.90;2.85;;;;;;;;;;5013053;28;20042;-84
2023/08/16 09:07:18;;;;;;;2.75;2.42;;;;;;;;;;5013199;28;20124;-87
2023/08/16 09:09:48;;;;;;;3.53;2.40;;;;;;;;;;5031085;28;20400;-89
2023/08/16 09:12:15;;;;;;;3.70;2.22;;;;;;;;;;5031007;28;20061;-89
2023/08/16 09:14:43;;;;;;;2.75;2.55;;;;;;;;;;5031764;28;20044;-87
2023/08/16 09:17:10;;;;;;;3.92;2.38;;;;;;;;;;5031241;28;20561;-88
2023/08/16 09:19:47;;;;;;;2.53;2.33;;;;;;;;;;5032807;28;20046;-88
2023/08/16 09:22:14;;;;;;;2.45;2.22;;;;;;;;;;5035234;28;20052;-88
2023/08/16 09:24:43;;;;;;;2.10;1.92;;;;;;;;;;5034432;28;20052;-88
2023/08/16 09:27:11;;;;;;;2.13;2.00;;;;;;;;;;5034831;28;20048;-88
2023/08/16 09:29:39;;;;;;;2.20;2.10;;;;;;;;;;5034429;28;20041;-86
2023/08/16 09:32:08;;;;;;;2.60;2.40;;;;;;;;;;5033719;28;20040;-87
2023/08/16 09:34:44;;;;;;;2.60;2.40;;;;;;;;;;5034484;28;20073;-86
2023/08/16 09:37:17;;;;;;;2.08;1.92;;;;;;;;;;5033670;28;20049;-87
2023/08/16 09:39:45;;;;;;;2.45;2.17;;;;;;;;;;5031023;28;20134;-87
2023/08/16 09:42:12;;;;;;;1.98;1.88;;;;;;;;;;5029002;28;20537;-86
2023/08/16 09:44:42;;;;;;;2.80;2.05;;;;;;;;;;5012278;28;20082;-87
2023/08/16 09:47:15;;;;;;;2.20;2.00;;;;;;;;;;5029621;28;20041;-86
2023/08/16 09:49:49;;;;;;;1.75;1.65;;;;;;;;;;5027381;28;20045;-86
2023/08/16 09:52:16;;;;;;;2.35;2.15;;;;;;;;;;5030116;28;20152;-86
2023/08/16 09:54:47;;;;;;;3.03;1.90;;;;;;;;;;5013329;28;20060;-86
2023/08/16 09:57:15;;;;;;;2.20;2.10;;;;;;;;;;5032187;28;20602;-86
2023/08/16 09:59:45;;;;;;;4.35;2.00;;;;;;;;;;5031762;28;20707;-86
2023/08/16 10:02:13;;;;;;;2.38;2.17;;;;;;;;;;5031826;28;20049;-85
2023/08/16 10:04:41;;;;;;;2.58;2.13;;;;;;;;;;4995341;28;20050;-85
2023/08/16 10:07:12;;;;;;;2.00;1.90;;;;;;;;;;5035969;28;20057;-87
2023/08/16 10:09:44;;;;;;;2.45;2.08;;;;;;;;;;5038138;28;20455;-86
2023/08/16 10:12:11;;;;;;;2.20;2.10;;;;;;;;;;5034703;28;20045;-86
2023/08/16 10:14:39;;;;;;;2.63;2.03;;;;;;;;;;5034326;28;20303;-86
2023/08/16 10:17:08;;;;;;;1.90;1.80;;;;;;;;;;5035563;28;20056;-86
2023/08/16 10:19:37;;;;;;;1.90;1.80;;;;;;;;;;5034327;28;20049;-86
2023/08/16 10:22:16;;;;;;;4.10;2.42;;;;;;;;;;5020407;28;20048;-86
2023/08/16 10:25:02;;;;;;;2.10;2.00;;;;;;;;;;5034790;28;20119;-85
2023/08/16 10:27:30;;;;;;;2.43;2.20;;;;;;;;;;5016826;28;20431;-86
2023/08/16 10:30:00;;;;;;;2.67;2.47;;;;;;;;;;5034293;28;20049;-86
2023/08/16 10:32:30;;;;;;;2.83;2.58;;;;;;;;;;5033293;28;20049;-86
2023/08/16 10:34:59;;;;;;;2.60;2.40;;;;;;;;;;5015696;28;20087;-85
2023/08/16 10:37:26;;;;;;;2.97;2.60;;;;;;;;;;5033501;28;20433;-85
2023/08/16 10:39:54;;;;;;;2.97;2.78;;;;;;;;;;5015931;28;20132;-84
2023/08/16 10:42:27;;;;;;;2.73;2.53;;;;;;;;;;5032772;28;20131;-85
2023/08/16 10:44:54;;;;;;;2.80;2.60;;;;;;;;;;5033695;28;20128;-85
2023/08/16 10:47:31;;;;;;;2.58;2.45;;;;;;;;;;5033664;28;20434;-86
2023/08/16 10:50:01;;;;;;;2.65;2.45;;;;;;;;;;5030652;28;20084;-87
2023/08/16 10:52:30;;;;;;;2.77;2.67;;;;;;;;;;5034100;28;20699;-87
2023/08/16 10:54:59;;;;;;;3.13;2.83;;;;;;;;;;5032663;28;20050;-87
2023/08/16 10:57:27;;;;;;;2.90;2.70;;;;;;;;;;5015274;28;20050;-86
2023/08/16 11:00:08;;;;;;;3.08;2.88;;;;;;;;;;5033852;28;20057;-86
2023/08/16 11:02:37;;;;;;;2.97;2.63;;;;;;;;;;5032466;28;20033;-86
2023/08/16 11:05:05;;;;;;;2.92;2.70;;;;;;;;;;5032519;28;20515;-87
2023/08/16 11:07:33;;;;;;;2.55;2.40;;;;;;;;;;5014369;28;20126;-88
2023/08/16 11:10:01;;;;;;;2.58;2.38;;;;;;;;;;5032491;28;20511;-84
2023/08/16 11:12:30;;;;;;;2.88;2.67;;;;;;;;;;5034257;28;20105;-85
2023/08/16 11:14:58;;;;;;;2.30;2.20;;;;;;;;;;5032788;28;20064;-86
2023/08/16 11:17:29;;;;;;;2.00;1.90;;;;;;;;;;5032857;28;20049;-87
2023/08/16 11:19:59;;;;;;;2.30;2.20;;;;;;;;;;5013973;28;20064;-86
2023/08/16 11:22:27;;;;;;;3.80;1.95;;;;;;;;;;5033224;28;20068;-87
2023/08/16 11:25:00;;;;;;;2.10;1.90;;;;;;;;;;5029397;28;20045;-86
2023/08/16 11:27:28;;;;;;;1.83;1.73;;;;;;;;;;5032963;28;20392;-86
2023/08/16 11:29:59;;;;;;;2.78;1.80;;;;;;;;;;5033961;28;20071;-87
2023/08/16 11:32:40;;;;;;;2.00;1.80;;;;;;;;;;5032371;28;20038;-87
2023/08/16 11:35:08;;;;;;;1.88;1.77;;;;;;;;;;5032407;28;20069;-86
2023/08/16 11:37:36;;;;;;;5.60;2.55;;;;;;;;;;5032696;28;20049;-86
2023/08/16 11:40:10;;;;;;;1.90;1.80;;;;;;;;;;5033827;28;20052;-87
2023/08/16 11:42:38;;;;;;;1.92;1.83;;;;;;;;;;5033745;28;20045;-87
2023/08/16 11:45:17;;;;;;;2.55;2.00;;;;;;;;;;5033705;28;20067;-86
2023/08/16 11:47:45;;;;;;;1.80;1.70;;;;;;;;;;5006426;28;20056;-88
2023/08/16 11:50:12;;;;;;;2.97;2.08;;;;;;;;;;5032331;28;20367;-87
2023/08/16 11:52:40;;;;;;;2.80;2.00;;;;;;;;;;5032590;28;20075;-86
2023/08/16 11:55:09;;;;;;;1.75;1.65;;;;;;;;;;5032598;28;20069;-85
2023/08/16 11:57:46;;;;;;;2.50;2.05;;;;;;;;;;5031516;28;20073;-87
2023/08/16 12:00:16;;;;;;;2.10;2.00;;;;;;;;;;5032989;28;20120;-87
2023/08/16 12:02:44;;;;;;;;;;;;;;;;;;5033913;28;20124;-86
2023/08/16 12:05:11;;;;;;;1.60;1.60;;;;;;;;;;5032596;28;19921;-86
2023/08/16 12:07:42;;;;;;;2.92;2.08;;;;;;;;;;5032285;28;20060;-87
2023/08/16 12:10:20;;;;;;;2.30;2.00;;;;;;;;;;5015496;28;20050;-88
2023/08/16 12:12:49;;;;;;;1.70;1.60;;;;;;;;;;5014384;28;20495;-87
2023/08/16 12:15:16;;;;;;;3.72;3.38;;;;;;;;;;5014030;28;20128;-86
2023/08/16 12:17:43;;;;;;;1.90;1.80;;;;;;;;;;5014801;28;20045;-87
2023/08/16 12:20:11;;;;;;;2.25;1.90;;;;;;;;;;5031607;28;20057;-86
2023/08/16 12:22:38;;;;;;;2.28;1.85;;;;;;;;;;5030101;28;20053;-85
2023/08/16 12:25:06;;;;;;;1.90;1.80;;;;;;;;;;5030804;28;20107;-87
2023/08/16 12:27:33;;;;;;;2.00;1.90;;;;;;;;;;5030531;28;20042;-86
2023/08/16 12:30:00;;;;;;;2.03;1.80;;;;;;;;;;5029779;28;20101;-87
2023/08/16 12:32:28;;;;;;;1.70;1.60;;;;;;;;;;5031701;28;20037;-85
2023/08/16 12:34:55;;;;;;;4.93;2.58;;;;;;;;;;5013964;28;20046;-87
2023/08/16 12:37:30;;;;;;;1.83;1.70;;;;;;;;;;5013874;28;20388;-87
2023/08/16 12:40:04;;;;;;;2.72;1.77;;;;;;;;;;5029110;28;20049;-86
2023/08/16 12:42:31;;;;;;;5.15;2.22;;;;;;;;;;5031124;28;20072;-86
2023/08/16 12:44:59;;;;;;;2.95;2.40;;;;;;;;;;5031181;28;20079;-86
2023/08/16 12:47:26;;;;;;;2.13;1.90;;;;;;;;;;5013347;28;20041;-87
2023/08/16 12:49:54;;;;;;;3.70;1.98;;;;;;;;;;5030848;28;20049;-86
2023/08/16 12:52:21;;;;;;;1.83;1.65;;;;;;;;;;5031335;28;20435;-86
2023/08/16 12:54:50;;;;;;;1.90;1.80;;;;;;;;;;5023805;28;20113;-86
2023/08/16 12:57:17;;;;;;;2.30;2.20;;;;;;;;;;5031461;28;20149;-85
2023/08/16 12:59:53;;;;;;;3.75;2.22;;;;;;;;;;5015974;28;20049;-85
2023/08/16 13:02:20;;;;;;;3.35;3.10;;;;;;;;;;5031401;28;20163;-87
2023/08/16 13:05:03;;;;;;;2.42;2.22;;;;;;;;;;5025722;28;20041;-87
2023/08/16 13:07:37;;;;;;;3.55;2.17;;;;;;;;;;5014063;28;20037;-85
2023/08/16 13:10:08;;;;;;;3.17;2.20;;;;;;;;;;5031149;28;20041;-87
2023/08/16 13:12:51;;;;;;;2.17;2.00;;;;;;;;;;5023674;28;20450;-87
2023/08/16 13:15:21;;;;;;;2.10;1.90;;;;;;;;;;5032298;28;20142;-86
2023/08/16 13:17:52;;;;;;;2.10;2.00;;;;;;;;;;5027762;28;20091;-87
2023/08/16 13:20:39;;;;;;;2.78;2.13;;;;;;;;;;5023507;28;20052;-86
2023/08/16 13:23:09;;;;;;;3.30;2.25;;;;;;;;;;5026153;28;20057;-87
2023/08/16 13:25:40;;;;;;;2.33;2.13;;;;;;;;;;5031726;28;20342;-87
2023/08/16 13:28:11;;;;;;;2.50;2.30;;;;;;;;;;5031375;28;20073;-86
2023/08/16 13:30:48;;;;;;;3.38;2.20;;;;;;;;;;5030117;28;20048;-86
2023/08/16 13:33:28;;;;;;;2.00;1.90;;;;;;;;;;5030810;28;20041;-87
2023/08/16 13:35:58;;;;;;;2.15;1.83;;;;;;;;;;5031256;28;20492;-85
2023/08/16 13:38:29;;;;;;;2.42;1.70;;;;;;;;;;5031155;28;20112;-87
2023/08/16 13:40:59;;;;;;;;;;;;;;;;;;5035088;28;20053;-87
2023/08/16 13:43:37;;;;;;;1.90;1.45;;;;;;;;;;5016822;28;19931;-87
2023/08/16 13:46:10;;;;;;;2.30;1.58;;;;;;;;;;5035251;28;20124;-86
2023/08/16 13:48:38;;;;;;;1.58;1.48;;;;;;;;;;5017888;28;20471;-86
2023/08/16 13:51:09;;;;;;;1.70;1.60;;;;;;;;;;5017210;28;20061;-86
2023/08/16 13:53:36;;;;;;;1.67;1.58;;;;;;;;;;5034672;28;20387;-85
2023/08/16 13:56:06;;;;;;;1.52;1.42;;;;;;;;;;5033656;28;20046;-84
2023/08/16 13:58:34;;;;;;;1.50;1.40;;;;;;;;;;5016682;28;20053;-86
2023/08/16 14:01:01;;;;;;;1.42;1.33;;;;;;;;;;5017861;28;20065;-84
2023/08/16 14:03:29;;;;;;;1.65;1.55;;;;;;;;;;4999989;28;20045;-87
2023/08/16 14:05:57;;;;;;;2.17;1.38;;;;;;;;;;5033860;28;20045;-86
2023/08/16 14:08:25;;;;;;;2.70;1.45;;;;;;;;;;5034387;28;20120;-86
2023/08/16 14:10:55;;;;;;;1.02;1.02;;;;;;;;;;5052688;22;20045;-82
2023/08/16 14:13:23;;;;;;;1.25;1.20;;;;;;;;;;5049035;28;20045;-80
2023/08/16 14:15:54;;;;;;;1.05;1.05;;;;;;;;;;5055457;28;20059;-81
2023/08/16 14:18:23;;;;;;;1.48;1.35;;;;;;;;;;5045774;28;20223;-81
2023/08/16 14:20:50;;;;;;;1.42;1.33;;;;;;;;;;5054384;28;20111;-82
2023/08/16 14:23:18;;;;;;;1.02;1.02;;;;;;;;;;5053133;28;20468;-80
2023/08/16 14:25:47;;;;;;;1.20;1.20;;;;;;;;;;5053104;28;20072;-79
2023/08/16 14:28:15;;;;;;;2.35;1.25;;;;;;;;;;5050196;28;20055;-79
2023/08/16 14:30:42;;;;;;;1.35;1.20;;;;;;;;;;5056122;28;20053;-80
2023/08/16 14:33:10;;;;;;;1.52;1.42;;;;;;;;;;5057657;28;20516;-81
2023/08/16 14:35:39;;;;;;;1.40;1.23;;;;;;;;;;5047513;28;20065;-78
2023/08/16 14:38:06;;;;;;;1.50;1.40;;;;;;;;;;5056057;28;20053;-80
2023/08/16 14:40:34;;;;;;;1.40;1.30;;;;;;;;;;5060301;28;20065;-79
2023/08/16 14:43:02;;;;;;;1.23;1.23;;;;;;;;;;5062105;28;20745;-80
2023/08/16 14:45:29;;;;;;;4.80;1.35;;;;;;;;;;5058852;28;20049;-81
2023/08/16 14:47:57;;;;;;;1.17;1.17;;;;;;;;;;5051431;28;20056;-80
2023/08/16 14:50:24;;;;;;;1.10;1.08;;;;;;;;;;5062160;28;20267;-78
2023/08/16 14:52:52;;;;;;;1.55;1.42;;;;;;;;;;5062530;28;20045;-79